Terminal Aerodrome Forecast
Issued by NWS Newport/Morehead City, NC

Home | Current Version | Previous Version | Text Only | Print | Product List | Glossary On
Versions: 1 2 3 4 5 6 7 8 9 10 11 12 13 14 15 16 17 18 19 20
097
FTUS42 KMHX 240228 AAA
TAFEWN
TAF AMD
KEWN 240228Z 2402/2424 21009KT P6SM -SHRA SCT008 OVC025
      TEMPO 2404/2406 5SM -SHRA OVC008
     FM240600 21008KT P6SM VCSH OVC008
     FM241400 24005KT P6SM OVC015
     FM241800 18007KT 6SM -SHRA OVC030=

USA.gov is the U.S. government's official web portal to all federal, state and local government web resources and services.